Gulf Spirit — CFL4920 — position and weather

sailwx.info

Track history (hours):
 
Tides and Currents Weather Stations Pressure Air Temp Water Temp Dewpoint Dewpoint Depression Visibility Wind Speed Wind Dir Waves Ship Positions

Gulf Spirit

Last reported at 2018-Jul-15 16:36 UTC. Time now 2018-Jul-16 02:45 UTC.
Position N 49°07' W 123°10'.

Length 30 m.

Type: Fishing. MMSI: 316001412.

Date/timePositionNaut miles runAvg speedWind from/ knotsBaromVisibWave heightAir tempDewpointWater temp
2018-Jul-15 16:36N 49°07' W 123°10'0 0.0
2018-Jul-15 16:22N 49°07' W 123°10'0 0.0
2018-Jul-15 16:00N 49°07' W 123°10'0 0.0
2018-Jul-15 15:06N 49°07' W 123°10'0 0.0
2018-Jul-15 09:57N 49°07' W 123°10'0 0.0
2018-Jul-15 09:30N 49°07' W 123°10'0 0.0
2018-Jul-15 09:00N 49°07' W 123°10'0 0.0
2018-Jul-15 08:30N 49°07' W 123°10'0 0.0
2018-Jul-15 06:46N 49°07' W 123°10'0 0.0
2018-Jul-15 05:24N 49°07' W 123°10'0 0.0
2018-Jul-15 05:00N 49°07' W 123°10'0 0.0
2018-Jul-15 04:30N 49°07' W 123°10'0 0.0
2018-Jul-15 03:57N 49°07' W 123°10'0 0.0
2018-Jul-15 03:30N 49°07' W 123°10'0 0.0
2018-Jul-15 03:00N 49°07' W 123°10'0 0.0
2018-Jul-15 02:30N 49°07' W 123°10'0 0.0
2018-Jul-15 02:00N 49°07' W 123°10'0 0.0
2018-Jul-15 01:30N 49°07' W 123°10'0 0.0
2018-Jul-15 01:00N 49°07' W 123°10'1 1.3
2018-Jul-15 00:30N 49°07' W 123°11'3 5.8
2018-Jul-15 00:00N 49°07' W 123°15'4 6.5
2018-Jul-14 23:19N 49°04' W 123°19'2 6.9
2018-Jul-14 22:59N 49°02' W 123°19'4 7.3
2018-Jul-14 22:27N 48°58' W 123°18'4 6.7
2018-Jul-14 21:55N 48°54' W 123°18'3 7.6
2018-Jul-14 21:29N 48°51' W 123°21'3 5.1
2018-Jul-14 21:00N 48°49' W 123°22'0 0.1
2018-Jul-14 20:09N 48°49' W 123°22'0 0.0
2018-Jul-14 19:54N 48°49' W 123°22'0 0.1
2018-Jul-14 19:29N 48°49' W 123°22'0 0.0
2018-Jul-14 18:52N 48°49' W 123°22'0 0.0
2018-Jul-14 18:30N 48°49' W 123°22'0 0.0
2018-Jul-14 17:57N 48°49' W 123°22'0 0.0
2018-Jul-14 17:29N 48°49' W 123°22'0 0.0
2018-Jul-14 16:57N 48°49' W 123°22'0 0.0
2018-Jul-14 16:26N 48°49' W 123°22'1 2.7
2018-Jul-14 16:00N 48°48' W 123°21'3 6.0
2018-Jul-14 15:30N 48°45' W 123°21'3 5.5
2018-Jul-14 15:00N 48°42' W 123°21'5 5.1
2018-Jul-14 14:00N 48°37' W 123°20'3 5.8
2018-Jul-14 13:30N 48°34' W 123°19'3 6.8
2018-Jul-14 13:00N 48°31' W 123°18'3 7.0
2018-Jul-14 12:30N 48°28' W 123°15'3 6.0
2018-Jul-14 12:00N 48°25' W 123°17'4 6.7
2018-Jul-14 11:27N 48°23' W 123°22'21 7.2
2018-Jul-14 08:35N 48°21' W 123°53'3 7.1
2018-Jul-14 08:08N 48°22' W 123°57'1 8.0
2018-Jul-14 07:58N 48°22' W 123°59'4 7.8
2018-Jul-14 07:30N 48°24' W 124°04'4 7.7
2018-Jul-14 07:00N 48°25' W 124°10'4 7.6
2018-Jul-14 06:30N 48°26' W 124°15'4 7.2
2018-Jul-14 06:00N 48°27' W 124°21'4 7.1
2018-Jul-14 05:30N 48°28' W 124°25'3 6.8
2018-Jul-14 05:00N 48°30' W 124°30'1 1.3
2018-Jul-14 04:30N 48°30' W 124°30'1 2.8
2018-Jul-14 04:00N 48°29' W 124°29'2 3.7
2018-Jul-14 03:29N 48°28' W 124°26'0 1.0
2018-Jul-14 03:00N 48°28' W 124°27'2 3.2
2018-Jul-14 02:30N 48°29' W 124°29'2 3.7
2018-Jul-14 02:00N 48°30' W 124°31'2 4.0
2018-Jul-14 01:30N 48°30' W 124°34'0 0.8
2018-Jul-14 01:00N 48°31' W 124°35'2 4.9
2018-Jul-14 00:30N 48°30' W 124°31'0 0.8
2018-Jul-14 00:00N 48°29' W 124°31'1 2.8
2018-Jul-13 23:30N 48°30' W 124°33'2 4.2
2018-Jul-13 23:00N 48°31' W 124°36'2 3.8
2018-Jul-13 22:30N 48°31' W 124°38'3 5.7
2018-Jul-13 22:00N 48°30' W 124°34'1 1.8
2018-Jul-13 21:30N 48°30' W 124°33'0 0.8
2018-Jul-13 21:00N 48°30' W 124°33'1 1.4
2018-Jul-13 20:30N 48°29' W 124°32'1 2.1
2018-Jul-13 20:00N 48°29' W 124°30'2 3.6
2018-Jul-13 19:30N 48°30' W 124°33'3 5.0
2018-Jul-13 19:00N 48°32' W 124°35'2 4.4
2018-Jul-13 18:30N 48°31' W 124°39'1 1.6
2018-Jul-13 18:00N 48°31' W 124°40'0 0.8
2018-Jul-13 17:30N 48°32' W 124°40'1 1.4
2018-Jul-13 17:00N 48°32' W 124°41'1 1.3
2018-Jul-13 16:30N 48°32' W 124°42'1 1.6
2018-Jul-13 16:00N 48°32' W 124°43'1 1.6
2018-Jul-13 15:30N 48°32' W 124°45'1 1.2
2018-Jul-13 15:00N 48°32' W 124°46'6 5.6
2018-Jul-13 14:00N 48°31' W 124°37'4 7.3
2018-Jul-13 13:30N 48°31' W 124°32'4 7.5
2018-Jul-13 13:00N 48°29' W 124°27'4 8.6
2018-Jul-13 12:30N 48°27' W 124°21'4 8.7
2018-Jul-13 12:00N 48°25' W 124°15'4 8.4
2018-Jul-13 11:30N 48°23' W 124°09'5 8.1
2018-Jul-13 10:53N 48°21' W 124°02'29 7.4
2018-Jul-13 06:57N 48°23' W 123°19'3 7.4
2018-Jul-13 06:30N 48°25' W 123°14'4 8.5
2018-Jul-13 05:59N 48°29' W 123°13'6 9.6
2018-Jul-13 05:22N 48°35' W 123°14'410.4
2018-Jul-13 05:00N 48°39' W 123°15'510.2
2018-Jul-13 04:30N 48°44' W 123°17'510.2
2018-Jul-13 04:00N 48°48' W 123°21'7 8.8
2018-Jul-13 03:11N 48°55' W 123°18'2 9.8
2018-Jul-13 02:59N 48°57' W 123°18'6 9.9
2018-Jul-13 02:20N 49°03' W 123°19'4 8.5
2018-Jul-13 01:52N 49°07' W 123°17'3 0.2
2018-Jul-12 12:02N 49°07' W 123°11'0 0.0
2018-Jul-12 11:41N 49°07' W 123°11'0 0.0
2018-Jul-12 11:29N 49°07' W 123°11'0 0.0
2018-Jul-12 11:00N 49°07' W 123°11'0 0.0
2018-Jul-12 10:30N 49°07' W 123°11'0 0.0
2018-Jul-12 10:00N 49°07' W 123°11'0 0.0
2018-Jul-12 09:30N 49°07' W 123°11'0 0.0
2018-Jul-12 09:00N 49°07' W 123°11'0 0.0
2018-Jul-12 08:30N 49°07' W 123°11'0 0.0
2018-Jul-12 08:00N 49°07' W 123°11'0 0.0
2018-Jul-12 07:28N 49°07' W 123°11'0 0.0
2018-Jul-12 07:00N 49°07' W 123°11'0 0.0
2018-Jul-12 06:29N 49°07' W 123°11'0 0.0
2018-Jul-12 05:59N 49°07' W 123°11'0 0.0
2018-Jul-12 05:29N 49°07' W 123°11'0 0.0
2018-Jul-12 05:00N 49°07' W 123°11'0 0.0
2018-Jul-12 04:29N 49°07' W 123°11'0 0.0
2018-Jul-12 04:00N 49°07' W 123°11'0 0.0
2018-Jul-12 03:30N 49°07' W 123°11'0 0.0
2018-Jul-12 02:59N 49°07' W 123°11'0 0.0
2018-Jul-12 02:30N 49°07' W 123°11'0 0.0
2018-Jul-12 02:00N 49°07' W 123°11'0 0.0
2018-Jul-12 01:30N 49°07' W 123°11'0 0.0
2018-Jul-12 01:00N 49°07' W 123°11'0 0.0
2018-Jul-12 00:30N 49°07' W 123°11'0 0.0
2018-Jul-12 00:00N 49°07' W 123°11'0 0.0
2018-Jul-11 23:30N 49°07' W 123°11'0 0.0
2018-Jul-11 23:00N 49°07' W 123°11'0 0.0
2018-Jul-11 22:29N 49°07' W 123°11'0 0.0
2018-Jul-11 22:00N 49°07' W 123°11'0 0.0
2018-Jul-11 21:28N 49°07' W 123°11'0 0.0
2018-Jul-11 20:53N 49°07' W 123°11'0 0.0
2018-Jul-11 16:55N 49°07' W 123°11'0 0.0
2018-Jul-11 16:30N 49°07' W 123°11'0 0.0
2018-Jul-11 15:58N 49°07' W 123°11'0 0.0
2018-Jul-11 15:30N 49°07' W 123°11'0 0.0
2018-Jul-11 15:00N 49°07' W 123°11'0 0.0
2018-Jul-11 14:30N 49°07' W 123°11'0 0.0
2018-Jul-11 13:59N 49°07' W 123°11'0 0.0
2018-Jul-11 13:30N 49°07' W 123°11'0 0.0
2018-Jul-11 12:58N 49°07' W 123°11'0 0.0
2018-Jul-11 12:30N 49°07' W 123°11'0 0.0
2018-Jul-11 12:00N 49°07' W 123°11'0 0.0
2018-Jul-11 11:30N 49°07' W 123°11'0 0.0
2018-Jul-11 10:59N 49°07' W 123°11'0 0.0
2018-Jul-11 10:30N 49°07' W 123°11'0 0.0
2018-Jul-11 10:00N 49°07' W 123°11'0 0.0
2018-Jul-11 09:29N 49°07' W 123°11'0 0.0
2018-Jul-11 09:00N 49°07' W 123°11'0 0.0
2018-Jul-11 08:30N 49°07' W 123°11'0 0.0
2018-Jul-11 08:00N 49°07' W 123°11'0 0.0
2018-Jul-11 07:30N 49°07' W 123°11'0 0.0
2018-Jul-11 07:00N 49°07' W 123°11'0 0.0
2018-Jul-11 06:30N 49°07' W 123°11'0 0.0
2018-Jul-11 06:00N 49°07' W 123°11'0 0.0
2018-Jul-11 05:30N 49°07' W 123°11'0 0.0
2018-Jul-11 05:00N 49°07' W 123°11'0 0.0
2018-Jul-11 04:30N 49°07' W 123°11'0 0.0
2018-Jul-11 04:00N 49°07' W 123°11'0 0.0
2018-Jul-11 03:30N 49°07' W 123°11'0 0.0
2018-Jul-11 03:00N 49°07' W 123°11'0 0.0
2018-Jul-11 02:29N 49°07' W 123°11'0 0.0
2018-Jul-11 02:00N 49°07' W 123°11'0 0.0
2018-Jul-11 01:30N 49°07' W 123°11'0 0.0
2018-Jul-11 01:00N 49°07' W 123°11'0 0.0
2018-Jul-11 00:29N 49°07' W 123°11'0 0.0
2018-Jul-11 00:00N 49°07' W 123°11'0 0.0
2018-Jul-10 23:30N 49°07' W 123°11'0 0.0
2018-Jul-10 23:00N 49°07' W 123°11'0 0.0
2018-Jul-10 22:29N 49°07' W 123°11'0 0.0
2018-Jul-10 22:00N 49°07' W 123°11'0 0.0
2018-Jul-10 21:30N 49°07' W 123°11'0 0.0
2018-Jul-10 21:00N 49°07' W 123°11'0 0.0
2018-Jul-10 20:28N 49°07' W 123°11'0 0.0
2018-Jul-10 19:43N 49°07' W 123°11'0 0.0
2018-Jul-10 19:29N 49°07' W 123°11'0 0.0
2018-Jul-10 16:03N 49°07' W 123°11'0 0.0
2018-Jul-10 15:51N 49°07' W 123°11'0 0.0
2018-Jul-10 15:28N 49°07' W 123°11'0 0.0
2018-Jul-10 14:57N 49°07' W 123°11'0 0.0
2018-Jul-10 14:29N 49°07' W 123°11'0 0.0
2018-Jul-10 14:00N 49°07' W 123°11'0 0.0
2018-Jul-10 13:30N 49°07' W 123°11'0 0.0
2018-Jul-10 13:00N 49°07' W 123°11'0 0.0
2018-Jul-10 12:30N 49°07' W 123°11'0 0.0
2018-Jul-10 12:00N 49°07' W 123°11'0 0.0
2018-Jul-10 11:30N 49°07' W 123°11'0 0.0
2018-Jul-10 11:00N 49°07' W 123°11'0 0.0
2018-Jul-10 10:30N 49°07' W 123°11'0 0.0
2018-Jul-10 10:00N 49°07' W 123°11'0 0.0
2018-Jul-10 09:30N 49°07' W 123°11'0 0.0
2018-Jul-10 09:00N 49°07' W 123°11'0 0.0
2018-Jul-10 08:30N 49°07' W 123°11'0 0.0
2018-Jul-10 08:00N 49°07' W 123°11'0 0.0
2018-Jul-10 07:30N 49°07' W 123°11'0 0.0
2018-Jul-10 07:00N 49°07' W 123°11'0 0.0
2018-Jul-10 06:30N 49°07' W 123°11'0 0.0
2018-Jul-10 06:00N 49°07' W 123°11'0 0.0
2018-Jul-10 05:30N 49°07' W 123°11'0 0.0
2018-Jul-10 05:00N 49°07' W 123°11'0 0.0
2018-Jul-10 04:30N 49°07' W 123°11'0 0.0
2018-Jul-10 04:00N 49°07' W 123°11'0 0.0
2018-Jul-10 03:30N 49°07' W 123°11'0 0.0
2018-Jul-10 03:00N 49°07' W 123°11'0 0.0
2018-Jul-10 02:30N 49°07' W 123°11'0 0.0
2018-Jul-10 02:00N 49°07' W 123°11'0 0.0
2018-Jul-10 01:30N 49°07' W 123°11'0 0.0
2018-Jul-10 00:59N 49°07' W 123°11'0 0.0
2018-Jul-10 00:30N 49°07' W 123°11'0 0.0
2018-Jul-10 00:00N 49°07' W 123°11'0 0.0
2018-Jul-09 23:30N 49°07' W 123°11'0 0.0
2018-Jul-09 23:00N 49°07' W 123°11'0 0.0
2018-Jul-09 22:28N 49°07' W 123°11'0 0.0
2018-Jul-09 21:59N 49°07' W 123°11'0 0.0
2018-Jul-09 21:30N 49°07' W 123°11'0 0.0
2018-Jul-09 20:58N 49°07' W 123°11'0 0.0
2018-Jul-09 20:28N 49°07' W 123°11'0 0.0
2018-Jul-09 20:00N 49°07' W 123°11'0 0.0
2018-Jul-09 19:30N 49°07' W 123°11'0 0.0
2018-Jul-09 19:00N 49°07' W 123°11'0 0.0
2018-Jul-09 14:45N 49°07' W 123°11'0 0.0
2018-Jul-09 14:29N 49°07' W 123°11'0 0.0
2018-Jul-09 13:59N 49°07' W 123°11'0 0.0
2018-Jul-09 13:30N 49°07' W 123°11'0 0.0
2018-Jul-09 13:00N 49°07' W 123°11'0 0.0
2018-Jul-09 12:30N 49°07' W 123°11'0 0.0
2018-Jul-09 12:00N 49°07' W 123°11'0 0.0
2018-Jul-09 11:30N 49°07' W 123°11'0 0.0
2018-Jul-09 11:00N 49°07' W 123°11'0 0.0
2018-Jul-09 10:29N 49°07' W 123°11'0 0.0
2018-Jul-09 10:00N 49°07' W 123°11'0 0.0
2018-Jul-09 09:30N 49°07' W 123°11'0 0.0
2018-Jul-09 09:00N 49°07' W 123°11'0 0.0
2018-Jul-09 08:30N 49°07' W 123°11'0 0.0
2018-Jul-09 08:00N 49°07' W 123°11'0 0.0
2018-Jul-09 07:30N 49°07' W 123°11'0 0.0
2018-Jul-09 07:00N 49°07' W 123°11'0 0.0
2018-Jul-09 06:30N 49°07' W 123°11'0 0.0
2018-Jul-09 06:00N 49°07' W 123°11'0 0.0
2018-Jul-09 04:16N 49°07' W 123°11'0 0.0
2018-Jul-09 03:59N 49°07' W 123°11'0 0.0
2018-Jul-09 03:30N 49°07' W 123°11'0 0.0
2018-Jul-09 03:00N 49°07' W 123°11'0 0.0
2018-Jul-09 02:30N 49°07' W 123°11'0 0.0
2018-Jul-09 01:59N 49°07' W 123°11'0 0.0
2018-Jul-09 01:30N 49°07' W 123°11'1 0.1
2018-Jul-08 18:38N 49°07' W 123°10'1 1.6
2018-Jul-08 17:46N 49°07' W 123°12'2 5.6
2018-Jul-08 17:25N 49°08' W 123°15'2 5.5
2018-Jul-08 16:59N 49°06' W 123°18'4 6.7
2018-Jul-08 16:21N 49°02' W 123°21'2 7.0
2018-Jul-08 16:00N 48°60' W 123°20'6 7.1
2018-Jul-08 15:12N 48°54' W 123°18'2 7.7
2018-Jul-08 15:00N 48°53' W 123°18'3 5.9
2018-Jul-08 14:27N 48°50' W 123°21'3 6.5
2018-Jul-08 14:00N 48°47' W 123°21'4 7.3
2018-Jul-08 13:29N 48°43' W 123°21'3 6.2
2018-Jul-08 13:00N 48°40' W 123°21'3 5.3
2018-Jul-08 12:30N 48°38' W 123°21'3 5.6
2018-Jul-08 12:01N 48°35' W 123°19'3 5.8
2018-Jul-08 11:30N 48°32' W 123°18'3 6.7
2018-Jul-08 11:00N 48°30' W 123°16'3 6.0
2018-Jul-08 10:30N 48°27' W 123°16'3 5.1
2018-Jul-08 10:00N 48°24' W 123°17'3 5.2
2018-Jul-08 09:30N 48°23' W 123°21'25 7.2
2018-Jul-08 05:57N 48°21' W 123°59'4 8.7
2018-Jul-08 05:29N 48°22' W 124°05'4 8.5
2018-Jul-08 05:00N 48°24' W 124°11'4 8.3
2018-Jul-08 04:30N 48°26' W 124°16'4 8.3
2018-Jul-08 04:00N 48°28' W 124°22'3 5.7
2018-Jul-08 03:30N 48°29' W 124°26'1 2.7
2018-Jul-08 03:01N 48°30' W 124°27'2 3.3
2018-Jul-08 02:31N 48°30' W 124°30'1 2.6
2018-Jul-08 02:00N 48°31' W 124°31'1 2.2
2018-Jul-08 01:30N 48°31' W 124°30'0 0.4
2018-Jul-08 01:00N 48°30' W 124°30'1 2.2
2018-Jul-08 00:30N 48°31' W 124°31'1 2.9
2018-Jul-08 00:00N 48°31' W 124°33'1 2.7
2018-Jul-07 23:30N 48°32' W 124°35'0 0.6
2018-Jul-07 23:01N 48°32' W 124°35'4 8.1
2018-Jul-07 22:30N 48°31' W 124°29'0 0.2
2018-Jul-07 22:00N 48°31' W 124°29'0 0.4
2018-Jul-07 21:30N 48°30' W 124°29'0 0.1
2018-Jul-07 21:00N 48°30' W 124°29'1 1.8
2018-Jul-07 20:30N 48°31' W 124°30'2 3.2
2018-Jul-07 20:00N 48°31' W 124°33'2 3.2
2018-Jul-07 19:31N 48°31' W 124°35'1 1.1
2018-Jul-07 19:00N 48°32' W 124°36'2 3.0
2018-Jul-07 18:30N 48°31' W 124°33'1 1.6
2018-Jul-07 18:00N 48°31' W 124°32'0 0.3
2018-Jul-07 17:31N 48°31' W 124°32'4 8.2
2018-Jul-07 16:59N 48°32' W 124°38'3 7.0
2018-Jul-07 16:30N 48°31' W 124°43'3 5.7
2018-Jul-07 16:00N 48°31' W 124°48'0 0.1
2018-Jul-07 15:30N 48°31' W 124°48'3 6.3
2018-Jul-07 15:00N 48°31' W 124°43'3 6.6
2018-Jul-07 14:29N 48°31' W 124°38'3 5.7
2018-Jul-07 14:01N 48°31' W 124°34'2 4.5
2018-Jul-07 13:30N 48°31' W 124°31'3 6.1
2018-Jul-07 13:00N 48°33' W 124°28'0 0.1
2018-Jul-07 12:30N 48°33' W 124°28'0 0.0
2018-Jul-07 12:00N 48°33' W 124°28'0 0.0
2018-Jul-07 11:30N 48°33' W 124°28'0 0.0
2018-Jul-07 11:01N 48°33' W 124°28'0 0.0
2018-Jul-07 10:30N 48°33' W 124°28'0 0.0
2018-Jul-07 10:01N 48°33' W 124°28'0 0.1
2018-Jul-07 09:30N 48°33' W 124°28'0 0.0
2018-Jul-07 09:00N 48°33' W 124°28'0 0.0
2018-Jul-07 08:30N 48°33' W 124°28'1 1.3
2018-Jul-07 08:00N 48°33' W 124°28'4 7.7
2018-Jul-07 07:30N 48°30' W 124°24'5 9.3
2018-Jul-07 07:00N 48°27' W 124°18'4 8.7
2018-Jul-07 06:30N 48°26' W 124°12'4 8.8
2018-Jul-07 06:00N 48°24' W 124°06'31 7.2
2018-Jul-07 01:43N 48°23' W 123°19'1 6.7
2018-Jul-07 01:30N 48°24' W 123°18'4 7.6
2018-Jul-07 01:00N 48°27' W 123°15'4 8.9
2018-Jul-07 00:30N 48°32' W 123°14'5 9.5
2018-Jul-06 23:58N 48°37' W 123°15'4 8.8
2018-Jul-06 23:30N 48°41' W 123°16'4 8.4
2018-Jul-06 23:00N 48°45' W 123°18'5 9.0
2018-Jul-06 22:29N 48°49' W 123°21'4 7.4
2018-Jul-06 21:54N 48°53' W 123°18'4 9.2
2018-Jul-06 21:29N 48°57' W 123°18'4 9.2
2018-Jul-06 20:59N 49°01' W 123°19'4 8.8
2018-Jul-06 20:30N 49°06' W 123°19'5 9.5
2018-Jul-06 20:00N 49°08' W 123°12'1 1.3
2018-Jul-06 19:30N 49°07' W 123°11'0 0.0
2018-Jul-06 19:00N 49°07' W 123°11'0 0.0
2018-Jul-06 17:55N 49°07' W 123°11'1 0.1
2018-Jul-06 08:04N 49°07' W 123°10'0 4.4
2018-Jul-06 08:00N 49°07' W 123°10'3 5.9
2018-Jul-06 07:29N 49°08' W 123°15'4 6.5
2018-Jul-06 06:50N 49°04' W 123°19'3 8.0
2018-Jul-06 06:28N 49°02' W 123°18'4 7.8
2018-Jul-06 05:54N 48°57' W 123°17'4 7.7
2018-Jul-06 05:24N 48°54' W 123°18'3 6.7
2018-Jul-06 05:00N 48°52' W 123°20'3 6.4
2018-Jul-06 04:28N 48°48' W 123°21'4 8.4
2018-Jul-06 04:00N 48°44' W 123°21'4 8.5
2018-Jul-06 03:30N 48°40' W 123°21'4 7.8
2018-Jul-06 03:00N 48°36' W 123°20'4 8.3
2018-Jul-06 02:30N 48°32' W 123°18'4 8.2
2018-Jul-06 02:00N 48°28' W 123°16'4 8.4
2018-Jul-06 01:30N 48°24' W 123°17'26 7.1
2018-Jul-05 21:50N 48°21' W 123°56'2 7.0
2018-Jul-05 21:30N 48°21' W 123°60'3 6.7
2018-Jul-05 21:00N 48°22' W 124°05'3 6.7
2018-Jul-05 20:30N 48°23' W 124°09'3 6.9
2018-Jul-05 20:00N 48°25' W 124°14'3 6.3
2018-Jul-05 19:30N 48°26' W 124°18'3 6.4
2018-Jul-05 19:00N 48°28' W 124°23'4 7.1
2018-Jul-05 18:30N 48°29' W 124°27'4 7.1
2018-Jul-05 18:00N 48°31' W 124°32'4 7.0
2018-Jul-05 17:31N 48°31' W 124°38'3 6.5
2018-Jul-05 17:00N 48°31' W 124°42'  
Track history (hours):
 
Tides and Currents Weather Stations Pressure Air Temp Water Temp Dewpoint Dewpoint Depression Visibility Wind Speed Wind Dir Waves Ship Positions

Gulf Spirit

Last reported at 2018-Jul-15 16:36 UTC. Time now 2018-Jul-16 02:45 UTC.
Position N 49°07' W 123°10'.

Length 30 m.

Type: Fishing. MMSI: 316001412.

Date/timePositionNaut miles runAvg speedWind from/ knotsBaromVisibWave heightAir tempDewpointWater temp
2018-Jul-15 16:36N 49°07' W 123°10'0 0.0
2018-Jul-15 16:22N 49°07' W 123°10'0 0.0
2018-Jul-15 16:00N 49°07' W 123°10'0 0.0
2018-Jul-15 15:06N 49°07' W 123°10'0 0.0
2018-Jul-15 09:57N 49°07' W 123°10'0 0.0
2018-Jul-15 09:30N 49°07' W 123°10'0 0.0
2018-Jul-15 09:00N 49°07' W 123°10'0 0.0
2018-Jul-15 08:30N 49°07' W 123°10'0 0.0
2018-Jul-15 06:46N 49°07' W 123°10'0 0.0
2018-Jul-15 05:24N 49°07' W 123°10'0 0.0
2018-Jul-15 05:00N 49°07' W 123°10'0 0.0
2018-Jul-15 04:30N 49°07' W 123°10'0 0.0
2018-Jul-15 03:57N 49°07' W 123°10'0 0.0
2018-Jul-15 03:30N 49°07' W 123°10'0 0.0
2018-Jul-15 03:00N 49°07' W 123°10'0 0.0
2018-Jul-15 02:30N 49°07' W 123°10'0 0.0
2018-Jul-15 02:00N 49°07' W 123°10'0 0.0
2018-Jul-15 01:30N 49°07' W 123°10'0 0.0
2018-Jul-15 01:00N 49°07' W 123°10'1 1.3
2018-Jul-15 00:30N 49°07' W 123°11'3 5.8
2018-Jul-15 00:00N 49°07' W 123°15'4 6.5
2018-Jul-14 23:19N 49°04' W 123°19'2 6.9
2018-Jul-14 22:59N 49°02' W 123°19'4 7.3
2018-Jul-14 22:27N 48°58' W 123°18'4 6.7
2018-Jul-14 21:55N 48°54' W 123°18'3 7.6
2018-Jul-14 21:29N 48°51' W 123°21'3 5.1
2018-Jul-14 21:00N 48°49' W 123°22'0 0.1
2018-Jul-14 20:09N 48°49' W 123°22'0 0.0
2018-Jul-14 19:54N 48°49' W 123°22'0 0.1
2018-Jul-14 19:29N 48°49' W 123°22'0 0.0
2018-Jul-14 18:52N 48°49' W 123°22'0 0.0
2018-Jul-14 18:30N 48°49' W 123°22'0 0.0
2018-Jul-14 17:57N 48°49' W 123°22'0 0.0
2018-Jul-14 17:29N 48°49' W 123°22'0 0.0
2018-Jul-14 16:57N 48°49' W 123°22'0 0.0
2018-Jul-14 16:26N 48°49' W 123°22'1 2.7
2018-Jul-14 16:00N 48°48' W 123°21'3 6.0
2018-Jul-14 15:30N 48°45' W 123°21'3 5.5
2018-Jul-14 15:00N 48°42' W 123°21'5 5.1
2018-Jul-14 14:00N 48°37' W 123°20'3 5.8
2018-Jul-14 13:30N 48°34' W 123°19'3 6.8
2018-Jul-14 13:00N 48°31' W 123°18'3 7.0
2018-Jul-14 12:30N 48°28' W 123°15'3 6.0
2018-Jul-14 12:00N 48°25' W 123°17'4 6.7
2018-Jul-14 11:27N 48°23' W 123°22'21 7.2
2018-Jul-14 08:35N 48°21' W 123°53'3 7.1
2018-Jul-14 08:08N 48°22' W 123°57'1 8.0
2018-Jul-14 07:58N 48°22' W 123°59'4 7.8
2018-Jul-14 07:30N 48°24' W 124°04'4 7.7
2018-Jul-14 07:00N 48°25' W 124°10'4 7.6
2018-Jul-14 06:30N 48°26' W 124°15'4 7.2
2018-Jul-14 06:00N 48°27' W 124°21'4 7.1
2018-Jul-14 05:30N 48°28' W 124°25'3 6.8
2018-Jul-14 05:00N 48°30' W 124°30'1 1.3
2018-Jul-14 04:30N 48°30' W 124°30'1 2.8
2018-Jul-14 04:00N 48°29' W 124°29'2 3.7
2018-Jul-14 03:29N 48°28' W 124°26'0 1.0
2018-Jul-14 03:00N 48°28' W 124°27'2 3.2
2018-Jul-14 02:30N 48°29' W 124°29'2 3.7
2018-Jul-14 02:00N 48°30' W 124°31'2 4.0
2018-Jul-14 01:30N 48°30' W 124°34'0 0.8
2018-Jul-14 01:00N 48°31' W 124°35'2 4.9
2018-Jul-14 00:30N 48°30' W 124°31'0 0.8
2018-Jul-14 00:00N 48°29' W 124°31'1 2.8
2018-Jul-13 23:30N 48°30' W 124°33'2 4.2
2018-Jul-13 23:00N 48°31' W 124°36'2 3.8
2018-Jul-13 22:30N 48°31' W 124°38'3 5.7
2018-Jul-13 22:00N 48°30' W 124°34'1 1.8
2018-Jul-13 21:30N 48°30' W 124°33'0 0.8
2018-Jul-13 21:00N 48°30' W 124°33'1 1.4
2018-Jul-13 20:30N 48°29' W 124°32'1 2.1
2018-Jul-13 20:00N 48°29' W 124°30'2 3.6
2018-Jul-13 19:30N 48°30' W 124°33'3 5.0
2018-Jul-13 19:00N 48°32' W 124°35'2 4.4
2018-Jul-13 18:30N 48°31' W 124°39'1 1.6
2018-Jul-13 18:00N 48°31' W 124°40'0 0.8
2018-Jul-13 17:30N 48°32' W 124°40'1 1.4
2018-Jul-13 17:00N 48°32' W 124°41'1 1.3
2018-Jul-13 16:30N 48°32' W 124°42'1 1.6
2018-Jul-13 16:00N 48°32' W 124°43'1 1.6
2018-Jul-13 15:30N 48°32' W 124°45'1 1.2
2018-Jul-13 15:00N 48°32' W 124°46'6 5.6
2018-Jul-13 14:00N 48°31' W 124°37'4 7.3
2018-Jul-13 13:30N 48°31' W 124°32'4 7.5
2018-Jul-13 13:00N 48°29' W 124°27'4 8.6
2018-Jul-13 12:30N 48°27' W 124°21'4 8.7
2018-Jul-13 12:00N 48°25' W 124°15'4 8.4
2018-Jul-13 11:30N 48°23' W 124°09'5 8.1
2018-Jul-13 10:53N 48°21' W 124°02'29 7.4
2018-Jul-13 06:57N 48°23' W 123°19'3 7.4
2018-Jul-13 06:30N 48°25' W 123°14'4 8.5
2018-Jul-13 05:59N 48°29' W 123°13'6 9.6
2018-Jul-13 05:22N 48°35' W 123°14'410.4
2018-Jul-13 05:00N 48°39' W 123°15'510.2
2018-Jul-13 04:30N 48°44' W 123°17'510.2
2018-Jul-13 04:00N 48°48' W 123°21'7 8.8
2018-Jul-13 03:11N 48°55' W 123°18'2 9.8
2018-Jul-13 02:59N 48°57' W 123°18'6 9.9
2018-Jul-13 02:20N 49°03' W 123°19'4 8.5
2018-Jul-13 01:52N 49°07' W 123°17'3 0.2
2018-Jul-12 12:02N 49°07' W 123°11'0 0.0
2018-Jul-12 11:41N 49°07' W 123°11'0 0.0
2018-Jul-12 11:29N 49°07' W 123°11'0 0.0
2018-Jul-12 11:00N 49°07' W 123°11'0 0.0
2018-Jul-12 10:30N 49°07' W 123°11'0 0.0
2018-Jul-12 10:00N 49°07' W 123°11'0 0.0
2018-Jul-12 09:30N 49°07' W 123°11'0 0.0
2018-Jul-12 09:00N 49°07' W 123°11'0 0.0
2018-Jul-12 08:30N 49°07' W 123°11'0 0.0
2018-Jul-12 08:00N 49°07' W 123°11'0 0.0
2018-Jul-12 07:28N 49°07' W 123°11'0 0.0
2018-Jul-12 07:00N 49°07' W 123°11'0 0.0
2018-Jul-12 06:29N 49°07' W 123°11'0 0.0
2018-Jul-12 05:59N 49°07' W 123°11'0 0.0
2018-Jul-12 05:29N 49°07' W 123°11'0 0.0
2018-Jul-12 05:00N 49°07' W 123°11'0 0.0
2018-Jul-12 04:29N 49°07' W 123°11'0 0.0
2018-Jul-12 04:00N 49°07' W 123°11'0 0.0
2018-Jul-12 03:30N 49°07' W 123°11'0 0.0
2018-Jul-12 02:59N 49°07' W 123°11'0 0.0
2018-Jul-12 02:30N 49°07' W 123°11'0 0.0
2018-Jul-12 02:00N 49°07' W 123°11'0 0.0
2018-Jul-12 01:30N 49°07' W 123°11'0 0.0
2018-Jul-12 01:00N 49°07' W 123°11'0 0.0
2018-Jul-12 00:30N 49°07' W 123°11'0 0.0
2018-Jul-12 00:00N 49°07' W 123°11'0 0.0
2018-Jul-11 23:30N 49°07' W 123°11'0 0.0
2018-Jul-11 23:00N 49°07' W 123°11'0 0.0
2018-Jul-11 22:29N 49°07' W 123°11'0 0.0
2018-Jul-11 22:00N 49°07' W 123°11'0 0.0
2018-Jul-11 21:28N 49°07' W 123°11'0 0.0
2018-Jul-11 20:53N 49°07' W 123°11'0 0.0
2018-Jul-11 16:55N 49°07' W 123°11'0 0.0
2018-Jul-11 16:30N 49°07' W 123°11'0 0.0
2018-Jul-11 15:58N 49°07' W 123°11'0 0.0
2018-Jul-11 15:30N 49°07' W 123°11'0 0.0
2018-Jul-11 15:00N 49°07' W 123°11'0 0.0
2018-Jul-11 14:30N 49°07' W 123°11'0 0.0
2018-Jul-11 13:59N 49°07' W 123°11'0 0.0
2018-Jul-11 13:30N 49°07' W 123°11'0 0.0
2018-Jul-11 12:58N 49°07' W 123°11'0 0.0
2018-Jul-11 12:30N 49°07' W 123°11'0 0.0
2018-Jul-11 12:00N 49°07' W 123°11'0 0.0
2018-Jul-11 11:30N 49°07' W 123°11'0 0.0
2018-Jul-11 10:59N 49°07' W 123°11'0 0.0
2018-Jul-11 10:30N 49°07' W 123°11'0 0.0
2018-Jul-11 10:00N 49°07' W 123°11'0 0.0
2018-Jul-11 09:29N 49°07' W 123°11'0 0.0
2018-Jul-11 09:00N 49°07' W 123°11'0 0.0
2018-Jul-11 08:30N 49°07' W 123°11'0 0.0
2018-Jul-11 08:00N 49°07' W 123°11'0 0.0
2018-Jul-11 07:30N 49°07' W 123°11'0 0.0
2018-Jul-11 07:00N 49°07' W 123°11'0 0.0
2018-Jul-11 06:30N 49°07' W 123°11'0 0.0
2018-Jul-11 06:00N 49°07' W 123°11'0 0.0
2018-Jul-11 05:30N 49°07' W 123°11'0 0.0
2018-Jul-11 05:00N 49°07' W 123°11'0 0.0
2018-Jul-11 04:30N 49°07' W 123°11'0 0.0
2018-Jul-11 04:00N 49°07' W 123°11'0 0.0
2018-Jul-11 03:30N 49°07' W 123°11'0 0.0
2018-Jul-11 03:00N 49°07' W 123°11'0 0.0
2018-Jul-11 02:29N 49°07' W 123°11'0 0.0
2018-Jul-11 02:00N 49°07' W 123°11'0 0.0
2018-Jul-11 01:30N 49°07' W 123°11'0 0.0
2018-Jul-11 01:00N 49°07' W 123°11'0 0.0
2018-Jul-11 00:29N 49°07' W 123°11'0 0.0
2018-Jul-11 00:00N 49°07' W 123°11'0 0.0
2018-Jul-10 23:30N 49°07' W 123°11'0 0.0
2018-Jul-10 23:00N 49°07' W 123°11'0 0.0
2018-Jul-10 22:29N 49°07' W 123°11'0 0.0
2018-Jul-10 22:00N 49°07' W 123°11'0 0.0
2018-Jul-10 21:30N 49°07' W 123°11'0 0.0
2018-Jul-10 21:00N 49°07' W 123°11'0 0.0
2018-Jul-10 20:28N 49°07' W 123°11'0 0.0
2018-Jul-10 19:43N 49°07' W 123°11'0 0.0
2018-Jul-10 19:29N 49°07' W 123°11'0 0.0
2018-Jul-10 16:03N 49°07' W 123°11'0 0.0
2018-Jul-10 15:51N 49°07' W 123°11'0 0.0
2018-Jul-10 15:28N 49°07' W 123°11'0 0.0
2018-Jul-10 14:57N 49°07' W 123°11'0 0.0
2018-Jul-10 14:29N 49°07' W 123°11'0 0.0
2018-Jul-10 14:00N 49°07' W 123°11'0 0.0
2018-Jul-10 13:30N 49°07' W 123°11'0 0.0
2018-Jul-10 13:00N 49°07' W 123°11'0 0.0
2018-Jul-10 12:30N 49°07' W 123°11'0 0.0
2018-Jul-10 12:00N 49°07' W 123°11'0 0.0
2018-Jul-10 11:30N 49°07' W 123°11'0 0.0
2018-Jul-10 11:00N 49°07' W 123°11'0 0.0
2018-Jul-10 10:30N 49°07' W 123°11'0 0.0
2018-Jul-10 10:00N 49°07' W 123°11'0 0.0
2018-Jul-10 09:30N 49°07' W 123°11'0 0.0
2018-Jul-10 09:00N 49°07' W 123°11'0 0.0
2018-Jul-10 08:30N 49°07' W 123°11'0 0.0
2018-Jul-10 08:00N 49°07' W 123°11'0 0.0
2018-Jul-10 07:30N 49°07' W 123°11'0 0.0
2018-Jul-10 07:00N 49°07' W 123°11'0 0.0
2018-Jul-10 06:30N 49°07' W 123°11'0 0.0
2018-Jul-10 06:00N 49°07' W 123°11'0 0.0
2018-Jul-10 05:30N 49°07' W 123°11'0 0.0
2018-Jul-10 05:00N 49°07' W 123°11'0 0.0
2018-Jul-10 04:30N 49°07' W 123°11'0 0.0
2018-Jul-10 04:00N 49°07' W 123°11'0 0.0
2018-Jul-10 03:30N 49°07' W 123°11'0 0.0
2018-Jul-10 03:00N 49°07' W 123°11'0 0.0
2018-Jul-10 02:30N 49°07' W 123°11'0 0.0
2018-Jul-10 02:00N 49°07' W 123°11'0 0.0
2018-Jul-10 01:30N 49°07' W 123°11'0 0.0
2018-Jul-10 00:59N 49°07' W 123°11'0 0.0
2018-Jul-10 00:30N 49°07' W 123°11'0 0.0
2018-Jul-10 00:00N 49°07' W 123°11'0 0.0
2018-Jul-09 23:30N 49°07' W 123°11'0 0.0
2018-Jul-09 23:00N 49°07' W 123°11'0 0.0
2018-Jul-09 22:28N 49°07' W 123°11'0 0.0
2018-Jul-09 21:59N 49°07' W 123°11'0 0.0
2018-Jul-09 21:30N 49°07' W 123°11'0 0.0
2018-Jul-09 20:58N 49°07' W 123°11'0 0.0
2018-Jul-09 20:28N 49°07' W 123°11'0 0.0
2018-Jul-09 20:00N 49°07' W 123°11'0 0.0
2018-Jul-09 19:30N 49°07' W 123°11'0 0.0
2018-Jul-09 19:00N 49°07' W 123°11'0 0.0
2018-Jul-09 14:45N 49°07' W 123°11'0 0.0
2018-Jul-09 14:29N 49°07' W 123°11'0 0.0
2018-Jul-09 13:59N 49°07' W 123°11'0 0.0
2018-Jul-09 13:30N 49°07' W 123°11'0 0.0
2018-Jul-09 13:00N 49°07' W 123°11'0 0.0
2018-Jul-09 12:30N 49°07' W 123°11'0 0.0
2018-Jul-09 12:00N 49°07' W 123°11'0 0.0
2018-Jul-09 11:30N 49°07' W 123°11'0 0.0
2018-Jul-09 11:00N 49°07' W 123°11'0 0.0
2018-Jul-09 10:29N 49°07' W 123°11'0 0.0
2018-Jul-09 10:00N 49°07' W 123°11'0 0.0
2018-Jul-09 09:30N 49°07' W 123°11'0 0.0
2018-Jul-09 09:00N 49°07' W 123°11'0 0.0
2018-Jul-09 08:30N 49°07' W 123°11'0 0.0
2018-Jul-09 08:00N 49°07' W 123°11'0 0.0
2018-Jul-09 07:30N 49°07' W 123°11'0 0.0
2018-Jul-09 07:00N 49°07' W 123°11'0 0.0
2018-Jul-09 06:30N 49°07' W 123°11'0 0.0
2018-Jul-09 06:00N 49°07' W 123°11'0 0.0
2018-Jul-09 04:16N 49°07' W 123°11'0 0.0
2018-Jul-09 03:59N 49°07' W 123°11'0 0.0
2018-Jul-09 03:30N 49°07' W 123°11'0 0.0
2018-Jul-09 03:00N 49°07' W 123°11'0 0.0
2018-Jul-09 02:30N 49°07' W 123°11'0 0.0
2018-Jul-09 01:59N 49°07' W 123°11'0 0.0
2018-Jul-09 01:30N 49°07' W 123°11'1 0.1
2018-Jul-08 18:38N 49°07' W 123°10'1 1.6
2018-Jul-08 17:46N 49°07' W 123°12'2 5.6
2018-Jul-08 17:25N 49°08' W 123°15'2 5.5
2018-Jul-08 16:59N 49°06' W 123°18'4 6.7
2018-Jul-08 16:21N 49°02' W 123°21'2 7.0
2018-Jul-08 16:00N 48°60' W 123°20'6 7.1
2018-Jul-08 15:12N 48°54' W 123°18'2 7.7
2018-Jul-08 15:00N 48°53' W 123°18'3 5.9
2018-Jul-08 14:27N 48°50' W 123°21'3 6.5
2018-Jul-08 14:00N 48°47' W 123°21'4 7.3
2018-Jul-08 13:29N 48°43' W 123°21'3 6.2
2018-Jul-08 13:00N 48°40' W 123°21'3 5.3
2018-Jul-08 12:30N 48°38' W 123°21'3 5.6
2018-Jul-08 12:01N 48°35' W 123°19'3 5.8
2018-Jul-08 11:30N 48°32' W 123°18'3 6.7
2018-Jul-08 11:00N 48°30' W 123°16'3 6.0
2018-Jul-08 10:30N 48°27' W 123°16'3 5.1
2018-Jul-08 10:00N 48°24' W 123°17'3 5.2
2018-Jul-08 09:30N 48°23' W 123°21'25 7.2
2018-Jul-08 05:57N 48°21' W 123°59'4 8.7
2018-Jul-08 05:29N 48°22' W 124°05'4 8.5
2018-Jul-08 05:00N 48°24' W 124°11'4 8.3
2018-Jul-08 04:30N 48°26' W 124°16'4 8.3
2018-Jul-08 04:00N 48°28' W 124°22'3 5.7
2018-Jul-08 03:30N 48°29' W 124°26'1 2.7
2018-Jul-08 03:01N 48°30' W 124°27'2 3.3
2018-Jul-08 02:31N 48°30' W 124°30'1 2.6
2018-Jul-08 02:00N 48°31' W 124°31'1 2.2
2018-Jul-08 01:30N 48°31' W 124°30'0 0.4
2018-Jul-08 01:00N 48°30' W 124°30'1 2.2
2018-Jul-08 00:30N 48°31' W 124°31'1 2.9
2018-Jul-08 00:00N 48°31' W 124°33'1 2.7
2018-Jul-07 23:30N 48°32' W 124°35'0 0.6
2018-Jul-07 23:01N 48°32' W 124°35'4 8.1
2018-Jul-07 22:30N 48°31' W 124°29'0 0.2
2018-Jul-07 22:00N 48°31' W 124°29'0 0.4
2018-Jul-07 21:30N 48°30' W 124°29'0 0.1
2018-Jul-07 21:00N 48°30' W 124°29'1 1.8
2018-Jul-07 20:30N 48°31' W 124°30'2 3.2
2018-Jul-07 20:00N 48°31' W 124°33'2 3.2
2018-Jul-07 19:31N 48°31' W 124°35'1 1.1
2018-Jul-07 19:00N 48°32' W 124°36'2 3.0
2018-Jul-07 18:30N 48°31' W 124°33'1 1.6
2018-Jul-07 18:00N 48°31' W 124°32'0 0.3
2018-Jul-07 17:31N 48°31' W 124°32'4 8.2
2018-Jul-07 16:59N 48°32' W 124°38'3 7.0
2018-Jul-07 16:30N 48°31' W 124°43'3 5.7
2018-Jul-07 16:00N 48°31' W 124°48'0 0.1
2018-Jul-07 15:30N 48°31' W 124°48'3 6.3
2018-Jul-07 15:00N 48°31' W 124°43'3 6.6
2018-Jul-07 14:29N 48°31' W 124°38'3 5.7
2018-Jul-07 14:01N 48°31' W 124°34'2 4.5
2018-Jul-07 13:30N 48°31' W 124°31'3 6.1
2018-Jul-07 13:00N 48°33' W 124°28'0 0.1
2018-Jul-07 12:30N 48°33' W 124°28'0 0.0
2018-Jul-07 12:00N 48°33' W 124°28'0 0.0
2018-Jul-07 11:30N 48°33' W 124°28'0 0.0
2018-Jul-07 11:01N 48°33' W 124°28'0 0.0
2018-Jul-07 10:30N 48°33' W 124°28'0 0.0
2018-Jul-07 10:01N 48°33' W 124°28'0 0.1
2018-Jul-07 09:30N 48°33' W 124°28'0 0.0
2018-Jul-07 09:00N 48°33' W 124°28'0 0.0
2018-Jul-07 08:30N 48°33' W 124°28'1 1.3
2018-Jul-07 08:00N 48°33' W 124°28'4 7.7
2018-Jul-07 07:30N 48°30' W 124°24'5 9.3
2018-Jul-07 07:00N 48°27' W 124°18'4 8.7
2018-Jul-07 06:30N 48°26' W 124°12'4 8.8
2018-Jul-07 06:00N 48°24' W 124°06'31 7.2
2018-Jul-07 01:43N 48°23' W 123°19'1 6.7
2018-Jul-07 01:30N 48°24' W 123°18'4 7.6
2018-Jul-07 01:00N 48°27' W 123°15'4 8.9
2018-Jul-07 00:30N 48°32' W 123°14'5 9.5
2018-Jul-06 23:58N 48°37' W 123°15'4 8.8
2018-Jul-06 23:30N 48°41' W 123°16'4 8.4
2018-Jul-06 23:00N 48°45' W 123°18'5 9.0
2018-Jul-06 22:29N 48°49' W 123°21'4 7.4
2018-Jul-06 21:54N 48°53' W 123°18'4 9.2
2018-Jul-06 21:29N 48°57' W 123°18'4 9.2
2018-Jul-06 20:59N 49°01' W 123°19'4 8.8
2018-Jul-06 20:30N 49°06' W 123°19'5 9.5
2018-Jul-06 20:00N 49°08' W 123°12'1 1.3
2018-Jul-06 19:30N 49°07' W 123°11'0 0.0
2018-Jul-06 19:00N 49°07' W 123°11'0 0.0
2018-Jul-06 17:55N 49°07' W 123°11'1 0.1
2018-Jul-06 08:04N 49°07' W 123°10'0 4.4
2018-Jul-06 08:00N 49°07' W 123°10'3 5.9
2018-Jul-06 07:29N 49°08' W 123°15'4 6.5
2018-Jul-06 06:50N 49°04' W 123°19'3 8.0
2018-Jul-06 06:28N 49°02' W 123°18'4 7.8
2018-Jul-06 05:54N 48°57' W 123°17'4 7.7
2018-Jul-06 05:24N 48°54' W 123°18'3 6.7
2018-Jul-06 05:00N 48°52' W 123°20'3 6.4
2018-Jul-06 04:28N 48°48' W 123°21'4 8.4
2018-Jul-06 04:00N 48°44' W 123°21'4 8.5
2018-Jul-06 03:30N 48°40' W 123°21'4 7.8
2018-Jul-06 03:00N 48°36' W 123°20'4 8.3
2018-Jul-06 02:30N 48°32' W 123°18'4 8.2
2018-Jul-06 02:00N 48°28' W 123°16'4 8.4
2018-Jul-06 01:30N 48°24' W 123°17'26 7.1
2018-Jul-05 21:50N 48°21' W 123°56'2 7.0
2018-Jul-05 21:30N 48°21' W 123°60'3 6.7
2018-Jul-05 21:00N 48°22' W 124°05'3 6.7
2018-Jul-05 20:30N 48°23' W 124°09'3 6.9
2018-Jul-05 20:00N 48°25' W 124°14'3 6.3
2018-Jul-05 19:30N 48°26' W 124°18'3 6.4
2018-Jul-05 19:00N 48°28' W 124°23'4 7.1
2018-Jul-05 18:30N 48°29' W 124°27'4 7.1
2018-Jul-05 18:00N 48°31' W 124°32'4 7.0
2018-Jul-05 17:31N 48°31' W 124°38'3 6.5
2018-Jul-05 17:00N 48°31' W 124°42'  

Dump ship's entire track history